Time;durP1;ratioP1;P1;durP2;ratioP2;P2;SDS_P1;SDS_P2;PMS_P1;PMS_P2;Temp;Humidity;BMP_temperature;BMP_pressure;BME280_temperature;BME280_humidity;BME280_pressure;Samples;Min_cycle;Max_cycle;Signal;HPM_P1;HPM_P2
2023/01/06 00:08:06;;;;;;;8.90;4.10;;;;;;;3.66;82.12;98814.55;420351;1292;112187;-40
2023/01/06 00:18:14;;;;;;;10.50;4.90;;;;;;;3.58;82.29;98828.72;420413;1302;121239;-39
2023/01/06 00:28:21;;;;;;;4.60;3.40;;;;;;;3.52;82.43;98841.65;420422;1298;97819;-39
2023/01/06 00:38:29;;;;;;;7.70;3.90;;;;;;;3.51;82.56;98856.23;420197;1300;109270;-40
2023/01/06 00:48:37;;;;;;;8.40;4.10;;;;;;;3.51;82.68;98864.80;420336;1298;98453;-39
2023/01/06 00:58:44;;;;;;;9.80;6.50;;;;;;;3.45;82.84;98881.77;420320;1293;112400;-40
2023/01/06 01:08:53;;;;;;;10.40;6.80;;;;;;;3.36;82.94;98898.61;420280;1292;108179;-41
2023/01/06 01:19:00;;;;;;;12.20;6.10;;;;;;;3.32;83.05;98912.63;420438;1302;97902;-40
2023/01/06 01:29:10;;;;;;;8.20;4.90;;;;;;;3.32;83.28;98928.41;420420;1301;108456;-40
2023/01/06 01:39:19;;;;;;;6.40;4.30;;;;;;;3.33;83.39;98941.84;420240;1298;107828;-39
2023/01/06 01:49:31;;;;;;;6.30;4.80;;;;;;;3.34;83.43;98954.89;420308;1285;97890;-39
2023/01/06 01:59:40;;;;;;;12.10;6.80;;;;;;;3.33;83.66;98975.68;420489;1286;107566;-40
2023/01/06 02:09:54;;;;;;;8.40;5.80;;;;;;;3.26;83.69;98993.02;420347;1301;121792;-40
2023/01/06 02:20:35;;;;;;;8.60;5.60;;;;;;;3.25;83.62;98995.52;420404;1301;111645;-40
2023/01/06 02:31:06;;;;;;;11.10;6.60;;;;;;;3.30;83.74;98991.70;420346;1301;107960;-40
2023/01/06 02:41:14;;;;;;;8.50;5.80;;;;;;;3.33;83.92;98995.52;421118;1275;376049;-39
2023/01/06 02:51:20;;;;;;;11.70;7.70;;;;;;;3.29;84.05;98997.02;421575;1290;107738;-43
2023/01/06 03:01:33;;;;;;;8.90;7.60;;;;;;;3.20;84.19;99017.21;421494;1297;97481;-40
2023/01/06 03:11:43;;;;;;;25.50;11.20;;;;;;;3.18;84.16;99008.34;421265;1298;97876;-40
2023/01/06 03:21:52;;;;;;;13.00;7.80;;;;;;;3.20;84.20;99011.11;421284;1299;107918;-43
2023/01/06 03:31:58;;;;;;;10.60;5.00;;;;;;;3.21;84.59;99011.98;421394;1295;97733;-40
2023/01/06 03:52:49;;;;;;;8.60;6.30;;;;;;;3.07;84.68;99037.95;421600;1298;107654;-40
2023/01/06 04:02:56;;;;;;;7.70;6.10;;;;;;;3.00;84.67;99041.58;421668;1299;97889;-43
2023/01/06 04:13:04;;;;;;;8.90;4.70;;;;;;;2.98;84.63;99031.98;421486;1298;97688;-41
2023/01/06 04:23:11;;;;;;;8.80;4.90;;;;;;;3.01;84.59;99028.84;421430;1298;107596;-41
2023/01/06 04:33:18;;;;;;;6.50;5.50;;;;;;;3.03;84.59;99034.90;421392;1298;97408;-40
2023/01/06 04:43:25;;;;;;;9.60;5.70;;;;;;;2.99;84.60;99023.05;421577;1287;110343;-39
2023/01/06 04:53:33;;;;;;;9.10;6.40;;;;;;;2.76;84.59;99014.51;421458;1295;107164;-40
2023/01/06 05:03:42;;;;;;;10.10;6.10;;;;;;;2.58;84.66;99020.13;421610;1298;97723;-40
2023/01/06 05:13:49;;;;;;;10.80;8.10;;;;;;;2.45;84.50;99036.52;421530;1275;97893;-39
2023/01/06 05:23:57;;;;;;;13.10;6.90;;;;;;;2.53;84.79;99052.84;421772;1299;109371;-40
2023/01/06 05:34:04;;;;;;;11.80;7.00;;;;;;;2.72;85.00;99047.69;421638;1292;97871;-40
2023/01/06 05:44:11;;;;;;;13.20;7.30;;;;;;;2.84;85.11;99047.21;421677;1298;110697;-40
2023/01/06 05:54:18;;;;;;;20.40;9.70;;;;;;;2.86;85.14;99068.56;421755;1298;109780;-41
2023/01/06 06:04:25;;;;;;;16.70;9.00;;;;;;;2.71;84.95;99081.70;421755;1299;108314;-40
2023/01/06 06:14:32;;;;;;;10.10;7.50;;;;;;;2.66;84.97;99089.35;421701;1299;117196;-40
2023/01/06 06:24:40;;;;;;;23.80;12.50;;;;;;;2.71;85.05;99098.05;421652;1287;108294;-40
2023/01/06 06:34:46;;;;;;;15.50;11.40;;;;;;;2.86;85.29;99106.69;421835;1302;97765;-40
2023/01/06 06:44:53;;;;;;;14.90;9.20;;;;;;;3.01;85.36;99119.10;421589;1299;110699;-40
2023/01/06 06:55:01;;;;;;;37.70;17.70;;;;;;;3.02;85.41;99117.08;421610;1299;107949;-39
2023/01/06 07:05:05;;;;;;;26.10;12.80;;;;;;;2.94;85.22;99111.03;421733;1298;97864;-39
2023/01/06 07:15:13;;;;;;;24.20;13.00;;;;;;;2.79;85.26;99110.92;421761;1289;97896;-40
2023/01/06 07:25:19;;;;;;;16.30;10.60;;;;;;;2.77;85.26;99121.60;421819;1287;108654;-39
2023/01/06 07:35:26;;;;;;;10.90;7.80;;;;;;;2.86;85.20;99133.13;421775;1295;97892;-38
2023/01/06 07:45:34;;;;;;;32.60;15.80;;;;;;;3.08;85.53;99140.81;421675;1299;108943;-40
2023/01/06 07:55:41;;;;;;;19.20;11.20;;;;;;;3.14;85.39;99157.96;421535;1296;97904;-40
2023/01/06 08:05:49;;;;;;;19.30;8.60;;;;;;;3.14;85.44;99157.92;421753;1293;110781;-40
2023/01/06 08:15:56;;;;;;;18.80;10.40;;;;;;;3.10;85.46;99149.30;421691;1293;108511;-39
2023/01/06 08:36:13;;;;;;;16.30;9.70;;;;;;;3.08;85.21;99162.42;421749;1299;97873;-40
2023/01/06 08:46:21;;;;;;;13.40;8.70;;;;;;;3.16;85.26;99162.83;421566;1288;108018;-39
2023/01/06 08:56:30;;;;;;;16.10;11.10;;;;;;;3.31;85.19;99160.55;421537;1299;97901;-40
2023/01/06 09:06:38;;;;;;;29.10;16.90;;;;;;;3.43;85.24;99151.04;421672;1288;108003;-39
2023/01/06 09:26:53;;;;;;;26.70;15.60;;;;;;;3.46;85.12;99156.52;421585;1300;100245;-39
2023/01/06 09:37:00;;;;;;;18.20;11.90;;;;;;;3.47;84.96;99158.42;421534;1289;98007;-40
2023/01/06 09:47:12;;;;;;;18.90;11.80;;;;;;;3.70;85.11;99145.36;421609;1295;107813;-40
2023/01/06 09:57:25;;;;;;;23.20;11.70;;;;;;;3.96;84.97;99131.09;421542;1296;97893;-40
2023/01/06 10:07:31;;;;;;;18.30;9.20;;;;;;;4.09;84.89;99117.80;421552;1299;110797;-39
2023/01/06 10:17:47;;;;;;;10.80;6.50;;;;;;;4.24;84.71;99095.38;421658;1287;108491;-39
2023/01/06 10:38:06;;;;;;;9.20;5.40;;;;;;;4.35;83.64;99069.52;421074;1295;96998;-41
2023/01/06 10:48:14;;;;;;;7.90;5.70;;;;;;;4.49;83.28;99062.66;421062;1295;107050;-42
2023/01/06 10:58:21;;;;;;;8.80;6.30;;;;;;;4.76;83.25;99066.95;420968;1295;97869;-39
2023/01/06 11:08:29;;;;;;;12.60;7.50;;;;;;;4.79;83.07;99059.46;421026;1289;110158;-40
2023/01/06 11:18:37;;;;;;;10.70;7.00;;;;;;;4.84;82.95;99041.67;420944;1287;107167;-40
2023/01/06 11:28:47;;;;;;;25.40;11.60;;;;;;;4.89;82.89;99005.12;420948;1299;97528;-40
2023/01/06 11:38:52;;;;;;;7.40;5.60;;;;;;;4.91;82.48;98972.49;421031;1299;97682;-40
2023/01/06 11:48:59;;;;;;;12.30;7.60;;;;;;;5.07;82.45;98960.94;420966;1299;109956;-40
2023/01/06 11:59:10;;;;;;;15.90;9.00;;;;;;;5.20;82.55;98970.70;421106;1299;107892;-39
2023/01/06 12:09:16;;;;;;;13.50;7.50;;;;;;;5.24;82.56;98973.73;421053;1295;97865;-40
2023/01/06 12:19:25;;;;;;;12.90;7.70;;;;;;;5.16;82.42;98972.23;421111;1299;109512;-39
2023/01/06 12:29:33;;;;;;;14.60;9.20;;;;;;;5.00;82.24;98947.16;421002;1298;109422;-40
2023/01/06 12:49:54;;;;;;;18.80;9.80;;;;;;;4.87;82.09;98927.98;421131;1296;108828;-40
2023/01/06 13:00:03;;;;;;;15.00;8.60;;;;;;;4.97;82.29;98917.53;422649;1295;107499;-40
2023/01/06 13:10:18;;;;;;;19.20;11.30;;;;;;;4.77;81.88;98883.02;422808;1292;96748;-38
2023/01/06 13:20:23;;;;;;;16.70;9.80;;;;;;;4.61;81.83;98872.30;422879;1289;111235;-40
2023/01/06 13:30:55;;;;;;;18.20;9.70;;;;;;;4.55;81.80;98856.21;422790;1292;107986;-41
2023/01/06 13:41:06;;;;;;;22.70;12.70;;;;;;;4.50;81.72;98831.05;422538;1284;96671;-40
2023/01/06 13:51:11;;;;;;;29.90;15.70;;;;;;;4.39;81.86;98820.73;422653;1292;109116;-41
2023/01/06 14:01:33;;;;;;;24.10;10.80;;;;;;;4.38;81.82;98823.42;422499;1280;97873;-39
2023/01/06 14:11:41;;;;;;;25.80;13.60;;;;;;;4.43;81.88;98826.17;422512;1295;97873;-40
2023/01/06 14:21:50;;;;;;;31.60;18.00;;;;;;;4.45;82.00;98817.29;422476;1296;110460;-40
2023/01/06 14:31:57;;;;;;;32.80;17.70;;;;;;;4.41;82.13;98816.64;422470;1296;108641;-40
2023/01/06 14:42:05;;;;;;;33.80;17.50;;;;;;;4.36;82.08;98804.71;422070;1296;434980;-40
2023/01/06 14:52:19;;;;;;;33.90;16.50;;;;;;;4.39;82.24;98797.45;422390;1291;110483;-40
2023/01/06 15:02:30;;;;;;;33.30;17.20;;;;;;;4.45;82.51;98801.81;422406;1295;106547;-40
2023/01/06 15:12:38;;;;;;;43.70;23.50;;;;;;;4.41;82.73;98797.60;422412;1295;96681;-40
2023/01/06 15:22:52;;;;;;;41.00;21.20;;;;;;;4.29;83.02;98777.88;422349;1281;111531;-40
2023/01/06 15:33:01;;;;;;;38.40;22.20;;;;;;;4.30;83.32;98771.19;422430;1286;108440;-40
2023/01/06 15:43:08;;;;;;;40.70;22.50;;;;;;;4.31;83.60;98741.69;422430;1288;97880;-40
2023/01/06 15:53:16;;;;;;;33.90;21.30;;;;;;;4.35;83.99;98730.36;422512;1297;109447;-40
2023/01/06 16:03:25;;;;;;;40.00;21.10;;;;;;;4.45;84.26;98732.30;422487;1286;107844;-38
2023/01/06 16:13:33;;;;;;;37.10;22.70;;;;;;;4.53;84.48;98709.14;422625;1288;97873;-40
2023/01/06 16:33:47;;;;;;;38.60;20.50;;;;;;;4.69;85.09;98705.46;422626;1295;97478;-40
2023/01/06 16:43:54;;;;;;;32.40;18.20;;;;;;;4.81;85.43;98696.58;422640;1293;109665;-40
2023/01/06 16:54:09;;;;;;;28.70;14.50;;;;;;;4.96;85.73;98699.61;422692;1295;107446;-40
2023/01/06 17:04:17;;;;;;;28.20;13.70;;;;;;;5.11;85.97;98693.54;422781;1286;97784;-39
2023/01/06 17:14:24;;;;;;;33.30;19.00;;;;;;;5.21;86.23;98698.68;422566;1286;108907;-38
2023/01/06 17:24:32;;;;;;;33.80;17.90;;;;;;;5.18;86.36;98701.36;422559;1281;97970;-39
2023/01/06 17:34:40;;;;;;;24.60;14.00;;;;;;;5.21;86.38;98704.42;422374;1295;111652;-40
2023/01/06 17:44:52;;;;;;;22.20;12.00;;;;;;;5.35;86.69;98701.81;422270;1295;108329;-39
2023/01/06 18:06:00;;;;;;;23.30;13.60;;;;;;;5.56;87.09;98702.12;422620;1295;108661;-40
2023/01/06 18:26:32;;;;;;;19.10;12.50;;;;;;;5.68;87.42;98712.83;422557;1296;110091;-41
2023/01/06 18:36:43;;;;;;;20.40;11.90;;;;;;;5.74;87.60;98722.58;422473;1295;107755;-39
2023/01/06 18:46:50;;;;;;;24.10;11.70;;;;;;;5.75;87.76;98721.54;422606;1296;97797;-41
2023/01/06 18:56:58;;;;;;;19.70;13.60;;;;;;;5.77;88.00;98720.41;422470;1292;108278;-41
2023/01/06 19:07:13;;;;;;;28.20;13.40;;;;;;;5.81;88.13;98720.90;422578;1295;98040;-40
2023/01/06 19:17:19;;;;;;;25.50;15.20;;;;;;;5.91;88.34;98722.81;422605;1291;109643;-39
2023/01/06 19:37:52;;;;;;;28.20;14.50;;;;;;;6.16;88.97;98728.39;422674;1292;97858;-40
2023/01/06 19:47:58;;;;;;;33.70;18.10;;;;;;;6.27;89.27;98744.41;422425;1295;108255;-40
2023/01/06 19:58:03;;;;;;;28.60;16.90;;;;;;;6.34;89.21;98746.60;422410;1295;96671;-39
2023/01/06 20:08:12;;;;;;;29.30;14.50;;;;;;;6.46;89.69;98749.50;422525;1295;111634;-40
2023/01/06 20:18:19;;;;;;;32.00;17.70;;;;;;;6.53;89.92;98756.23;422502;1295;108251;-40
2023/01/06 20:28:26;;;;;;;13.10;9.60;;;;;;;6.59;90.20;98758.75;422532;1293;97788;-40
2023/01/06 20:38:33;;;;;;;11.40;7.70;;;;;;;6.67;90.63;98769.41;422641;1295;108327;-41
2023/01/06 20:58:47;;;;;;;15.30;9.60;;;;;;;6.84;91.30;98787.52;422772;1295;109362;-40
2023/01/06 21:08:54;;;;;;;13.40;7.40;;;;;;;6.92;91.58;98786.36;422527;1295;108600;-40
2023/01/06 21:19:02;;;;;;;11.00;7.80;;;;;;;6.97;91.51;98791.29;422803;1286;97854;-40
2023/01/06 21:29:09;;;;;;;13.90;10.00;;;;;;;7.03;91.94;98794.56;422611;1286;108543;-40
2023/01/06 21:39:17;;;;;;;14.20;9.60;;;;;;;7.05;91.94;98805.60;422618;1295;97861;-41
2023/01/06 21:49:24;;;;;;;13.90;9.40;;;;;;;7.03;91.69;98819.55;422578;1295;111348;-40
2023/01/06 21:59:32;;;;;;;16.00;9.00;;;;;;;7.01;91.95;98826.07;422474;1292;107777;-40
2023/01/06 22:09:42;;;;;;;14.40;10.00;;;;;;;6.99;92.20;98832.34;422551;1294;96648;-40
2023/01/06 22:19:52;;;;;;;12.40;8.40;;;;;;;7.01;92.35;98838.16;422434;1286;106985;-40
2023/01/06 22:29:59;;;;;;;10.50;7.50;;;;;;;7.04;92.46;98845.12;422482;1294;98218;-40
2023/01/06 22:40:08;;;;;;;13.90;8.80;;;;;;;7.07;92.50;98853.13;422453;1295;110074;-40
2023/01/06 22:50:14;;;;;;;;;;;;;;;7.09;92.60;98866.92;422563;1296;107618;-41
2023/01/06 23:00:22;;;;;;;15.10;8.90;;;;;;;7.11;92.77;98880.54;422448;1295;97982;-40
2023/01/06 23:10:29;;;;;;;10.00;8.00;;;;;;;7.11;92.71;98890.78;422473;1288;108313;-40
2023/01/06 23:20:36;;;;;;;10.70;7.50;;;;;;;7.10;92.58;98904.88;422331;1292;96671;-41
2023/01/06 23:30:43;;;;;;;12.90;7.70;;;;;;;7.06;92.78;98913.92;422488;1287;110461;-40
2023/01/06 23:40:50;;;;;;;12.10;7.30;;;;;;;7.04;92.80;98923.55;422457;1281;107312;-41
2023/01/06 23:50:58;;;;;;;8.00;6.30;;;;;;;7.00;92.80;98914.09;422461;1295;97853;-40
